Time;durP1;ratioP1;P1;durP2;ratioP2;P2;SDS_P1;SDS_P2;PMS_P1;PMS_P2;Temp;Humidity;BMP_temperature;BMP_pressure;BME280_temperature;BME280_humidity;BME280_pressure;Samples;Min_cycle;Max_cycle;Signal;HPM_P1;HPM_P2
2023/07/02 00:00:38;;;;;;;5.93;3.35;;;16.50;99.90;;;;;;5054568;28;20409;-58
2023/07/02 00:03:04;;;;;;;15.70;4.28;;;16.50;99.90;;;;;;5054746;28;20027;-55
2023/07/02 00:05:30;;;;;;;10.55;3.60;;;16.50;99.90;;;;;;5054973;28;20387;-59
2023/07/02 00:07:55;;;;;;;6.82;3.20;;;16.50;99.90;;;;;;5054609;28;20476;-58
2023/07/02 00:10:21;;;;;;;8.00;3.83;;;16.60;99.90;;;;;;5055053;28;20044;-61
2023/07/02 00:12:47;;;;;;;14.85;4.63;;;16.60;99.90;;;;;;5054993;28;20173;-59
2023/07/02 00:15:12;;;;;;;7.32;2.97;;;16.60;99.90;;;;;;5054920;28;20047;-54
2023/07/02 00:17:39;;;;;;;9.00;3.42;;;16.60;99.90;;;;;;5054904;28;20420;-57
2023/07/02 00:20:06;;;;;;;9.60;3.50;;;16.50;99.90;;;;;;5054850;28;20029;-55
2023/07/02 00:22:36;;;;;;;9.90;3.70;;;16.50;99.90;;;;;;5054967;28;20029;-61
2023/07/02 00:25:01;;;;;;;11.43;3.92;;;16.50;99.90;;;;;;5054770;28;20021;-59
2023/07/02 00:27:27;;;;;;;7.32;3.20;;;16.50;99.90;;;;;;5054766;28;20028;-60
2023/07/02 00:29:52;;;;;;;12.55;3.40;;;16.50;99.90;;;;;;5054768;28;20025;-61
2023/07/02 00:32:18;;;;;;;12.82;3.63;;;16.50;99.90;;;;;;5054851;28;20040;-60
2023/07/02 00:34:43;;;;;;;5.72;3.47;;;16.50;99.90;;;;;;5054541;28;20091;-58
2023/07/02 00:37:09;;;;;;;10.13;3.28;;;16.50;99.90;;;;;;5054457;28;20096;-58
2023/07/02 00:39:34;;;;;;;10.43;3.50;;;16.40;99.90;;;;;;5054688;28;20036;-61
2023/07/02 00:42:02;;;;;;;6.13;2.75;;;16.50;99.90;;;;;;5054539;28;20150;-59
2023/07/02 00:44:28;;;;;;;7.88;3.35;;;16.50;99.90;;;;;;5054615;28;20167;-58
2023/07/02 00:46:53;;;;;;;5.95;3.85;;;16.50;99.90;;;;;;5054314;28;20044;-61
2023/07/02 00:49:19;;;;;;;10.60;3.78;;;16.50;99.90;;;;;;5054410;28;20021;-60
2023/07/02 00:51:45;;;;;;;14.13;3.80;;;16.50;99.90;;;;;;5054393;28;20437;-58
2023/07/02 00:54:10;;;;;;;8.32;3.42;;;16.50;99.90;;;;;;5054794;28;20029;-58
2023/07/02 00:56:36;;;;;;;10.70;3.47;;;16.40;99.90;;;;;;5054465;28;20033;-59
2023/07/02 00:59:02;;;;;;;8.20;4.22;;;16.50;99.90;;;;;;5054337;28;20025;-59
2023/07/02 01:01:28;;;;;;;9.30;3.85;;;16.50;99.90;;;;;;5054450;28;20086;-56
2023/07/02 01:04:04;;;;;;;8.27;4.35;;;16.40;99.90;;;;;;5053907;28;20029;-53
2023/07/02 01:06:33;;;;;;;9.70;4.10;;;16.40;99.90;;;;;;5054415;28;20154;-56
2023/07/02 01:09:03;;;;;;;14.75;5.07;;;16.40;99.90;;;;;;5054036;28;20419;-61
2023/07/02 01:11:50;;;;;;;16.40;4.60;;;16.40;99.90;;;;;;5053106;28;20100;-58
2023/07/02 01:14:26;;;;;;;13.13;4.22;;;16.30;99.90;;;;;;5053989;28;20483;-59
2023/07/02 01:16:54;;;;;;;9.05;4.28;;;16.30;99.90;;;;;;5053796;28;20551;-57
2023/07/02 01:19:40;;;;;;;18.13;5.68;;;16.30;99.90;;;;;;5054107;28;20033;-54
2023/07/02 01:22:06;;;;;;;12.68;5.18;;;16.30;99.90;;;;;;5053897;28;20025;-57
2023/07/02 01:24:32;;;;;;;18.42;5.78;;;16.30;99.90;;;;;;5053850;28;20552;-57
2023/07/02 01:27:01;;;;;;;13.68;5.80;;;16.30;99.90;;;;;;5053573;28;20025;-56
2023/07/02 01:29:29;;;;;;;15.75;5.50;;;16.20;99.90;;;;;;5053746;28;20045;-60
2023/07/02 01:31:55;;;;;;;25.23;7.10;;;16.30;99.90;;;;;;5053950;28;20036;-54
2023/07/02 01:34:20;;;;;;;20.52;7.45;;;16.20;99.90;;;;;;5053799;28;20021;-55
2023/07/02 01:36:46;;;;;;;21.30;6.22;;;16.20;99.90;;;;;;5053726;28;20033;-58
2023/07/02 01:39:12;;;;;;;25.67;7.20;;;16.20;99.90;;;;;;5053439;28;20021;-54
2023/07/02 01:41:50;;;;;;;19.17;6.68;;;16.20;99.90;;;;;;5053534;28;20044;-54
2023/07/02 01:44:16;;;;;;;16.88;7.03;;;16.30;99.90;;;;;;5053460;28;20104;-59
2023/07/02 01:46:41;;;;;;;19.48;7.50;;;16.20;99.90;;;;;;5053394;28;20490;-56
2023/07/02 01:49:07;;;;;;;14.65;6.75;;;16.30;99.90;;;;;;5053238;28;20173;-60
2023/07/02 01:51:33;;;;;;;19.88;8.18;;;16.30;99.90;;;;;;5053484;28;20039;-56
2023/07/02 01:54:00;;;;;;;17.98;7.97;;;16.20;99.90;;;;;;5052939;28;20029;-57
2023/07/02 01:56:26;;;;;;;21.27;8.35;;;16.20;99.90;;;;;;5053376;28;20087;-57
2023/07/02 01:58:51;;;;;;;18.90;7.07;;;16.20;99.90;;;;;;5053136;28;20025;-59
2023/07/02 02:01:17;;;;;;;24.98;8.95;;;16.20;99.90;;;;;;5053531;28;20129;-57
2023/07/02 02:03:42;;;;;;;21.52;8.52;;;16.20;99.90;;;;;;5052977;28;20111;-60
2023/07/02 02:06:08;;;;;;;23.27;8.82;;;16.10;99.90;;;;;;5053023;28;20032;-60
2023/07/02 02:08:34;;;;;;;28.00;9.20;;;16.20;99.90;;;;;;5052829;28;20059;-60
2023/07/02 02:11:00;;;;;;;28.25;9.45;;;16.10;99.90;;;;;;5052915;28;20082;-58
2023/07/02 02:13:26;;;;;;;19.38;8.73;;;16.10;99.90;;;;;;5052825;28;20100;-58
2023/07/02 02:15:51;;;;;;;28.70;10.00;;;16.10;99.90;;;;;;5052849;28;20501;-56
2023/07/02 02:18:17;;;;;;;23.70;8.93;;;16.20;99.90;;;;;;5052739;28;20479;-55
2023/07/02 02:20:42;;;;;;;22.10;9.48;;;16.10;99.90;;;;;;5052856;28;20036;-57
2023/07/02 02:23:08;;;;;;;25.55;9.55;;;16.20;99.90;;;;;;5052172;28;20025;-55
2023/07/02 02:25:33;;;;;;;32.55;10.65;;;16.10;99.90;;;;;;5052699;28;20033;-57
2023/07/02 02:27:59;;;;;;;29.00;9.70;;;16.10;99.90;;;;;;5048399;28;20037;-56
2023/07/02 02:30:25;;;;;;;29.17;9.63;;;16.20;99.90;;;;;;5048401;28;20037;-57
2023/07/02 02:32:50;;;;;;;36.38;10.63;;;16.20;99.90;;;;;;5052353;28;20025;-57
2023/07/02 02:35:16;;;;;;;24.95;9.90;;;16.20;99.90;;;;;;5051030;28;20025;-58
2023/07/02 02:37:41;;;;;;;28.90;10.95;;;16.20;99.90;;;;;;5045941;28;20048;-55
2023/07/02 02:40:11;;;;;;;24.80;10.80;;;16.20;99.90;;;;;;5051157;28;20032;-57
2023/07/02 02:42:38;;;;;;;28.88;10.35;;;16.20;99.90;;;;;;5052357;28;20398;-58
2023/07/02 02:45:03;;;;;;;31.63;10.70;;;16.20;99.90;;;;;;5052268;28;20498;-58
2023/07/02 02:47:29;;;;;;;28.77;11.98;;;16.20;99.90;;;;;;5051460;28;20033;-55
2023/07/02 02:49:54;;;;;;;24.75;10.07;;;16.20;99.90;;;;;;5052371;28;20065;-56
2023/07/02 02:52:20;;;;;;;25.08;10.90;;;16.20;99.90;;;;;;5052106;28;20025;-58
2023/07/02 02:54:46;;;;;;;43.63;11.88;;;16.20;99.90;;;;;;5051329;28;20071;-56
2023/07/02 02:57:11;;;;;;;37.83;11.82;;;16.20;99.90;;;;;;5050851;28;20029;-57
2023/07/02 02:59:37;;;;;;;26.75;10.50;;;16.10;99.90;;;;;;5051837;28;20519;-60
2023/07/02 03:02:03;;;;;;;34.00;12.40;;;16.10;99.90;;;;;;5051954;28;20480;-57
2023/07/02 03:04:29;;;;;;;29.63;11.50;;;16.10;99.90;;;;;;5051911;28;20107;-57
2023/07/02 03:06:55;;;;;;;30.95;11.82;;;16.10;99.90;;;;;;5051525;28;20526;-61
2023/07/02 03:09:21;;;;;;;28.63;11.52;;;16.10;99.90;;;;;;5051971;28;20028;-58
2023/07/02 03:11:47;;;;;;;36.95;12.20;;;16.10;99.90;;;;;;5051822;28;20025;-62
2023/07/02 03:14:13;;;;;;;28.70;10.95;;;16.10;99.90;;;;;;5051668;28;20025;-58
2023/07/02 03:16:39;;;;;;;29.08;11.88;;;16.10;99.90;;;;;;5051715;28;20377;-58
2023/07/02 03:19:04;;;;;;;33.65;11.70;;;16.10;99.90;;;;;;5051438;28;20044;-57
2023/07/02 03:21:30;;;;;;;34.90;13.27;;;16.10;99.90;;;;;;5051677;28;20037;-60
2023/07/02 03:23:55;;;;;;;39.35;13.45;;;16.10;99.90;;;;;;5051477;28;20048;-58
2023/07/02 03:26:22;;;;;;;35.65;12.65;;;16.10;99.90;;;;;;5051614;28;20411;-60
2023/07/02 03:28:48;;;;;;;29.48;12.18;;;16.00;99.90;;;;;;5051303;28;20052;-56
2023/07/02 03:31:14;;;;;;;29.65;12.00;;;16.10;99.90;;;;;;5051633;28;20048;-61
2023/07/02 03:33:40;;;;;;;35.22;13.00;;;16.00;99.90;;;;;;5050966;28;20025;-58
2023/07/02 03:36:06;;;;;;;35.35;12.93;;;16.00;99.90;;;;;;5051242;28;20029;-59
2023/07/02 03:38:32;;;;;;;31.38;12.15;;;16.00;99.90;;;;;;5051324;28;20475;-57
2023/07/02 03:40:57;;;;;;;34.90;13.65;;;16.00;99.90;;;;;;5051308;28;20071;-61
2023/07/02 03:43:24;;;;;;;37.30;14.00;;;16.00;99.90;;;;;;5051351;28;20415;-58
2023/07/02 03:45:51;;;;;;;33.70;12.50;;;16.00;99.90;;;;;;5051212;28;20096;-56
2023/07/02 03:48:16;;;;;;;31.67;12.80;;;16.00;99.90;;;;;;5051361;28;20022;-56
2023/07/02 03:50:42;;;;;;;28.38;12.63;;;16.00;99.90;;;;;;5051267;28;20424;-60
2023/07/02 03:53:08;;;;;;;30.90;13.43;;;16.00;99.90;;;;;;5048572;28;20075;-59
2023/07/02 03:55:33;;;;;;;46.75;14.45;;;16.00;99.90;;;;;;5045991;28;20411;-56
2023/07/02 03:57:59;;;;;;;39.28;13.50;;;16.00;99.90;;;;;;5050985;28;20032;-57
2023/07/02 04:00:24;;;;;;;36.92;14.43;;;16.00;99.90;;;;;;5051182;28;20047;-58
2023/07/02 04:02:50;;;;;;;49.15;15.73;;;16.00;99.90;;;;;;5051139;28;20040;-54
2023/07/02 04:05:16;;;;;;;41.80;14.95;;;16.00;99.90;;;;;;5051043;28;20418;-58
2023/07/02 04:07:41;;;;;;;34.65;13.50;;;16.00;99.90;;;;;;5050992;28;20032;-58
2023/07/02 04:10:07;;;;;;;34.92;14.93;;;16.00;99.90;;;;;;5051131;28;20061;-60
2023/07/02 04:12:33;;;;;;;41.85;16.75;;;16.00;99.90;;;;;;5051103;28;20052;-58
2023/07/02 04:14:59;;;;;;;42.90;15.55;;;16.00;99.90;;;;;;5051112;28;20492;-57
2023/07/02 04:17:24;;;;;;;44.83;15.70;;;16.00;99.90;;;;;;5050861;28;20501;-59
2023/07/02 04:19:50;;;;;;;43.03;15.00;;;16.00;99.90;;;;;;5050761;28;20091;-60
2023/07/02 04:22:15;;;;;;;48.47;15.68;;;16.00;99.90;;;;;;5050993;28;20025;-59
2023/07/02 04:24:41;;;;;;;40.95;15.35;;;16.10;99.90;;;;;;5050840;28;20029;-58
2023/07/02 04:27:06;;;;;;;40.13;15.13;;;16.10;99.90;;;;;;5050737;28;20037;-57
2023/07/02 04:29:33;;;;;;;44.00;15.75;;;16.10;99.90;;;;;;5050805;28;20025;-61
2023/07/02 04:31:58;;;;;;;41.45;15.85;;;16.20;99.90;;;;;;5050887;28;20498;-58
2023/07/02 04:34:24;;;;;;;43.15;16.05;;;16.20;99.90;;;;;;5050716;28;20025;-58
2023/07/02 04:36:49;;;;;;;35.38;15.27;;;16.20;99.90;;;;;;5050683;28;20021;-58
2023/07/02 04:39:15;;;;;;;44.40;16.20;;;16.20;99.90;;;;;;5050871;28;20029;-58
2023/07/02 04:41:40;;;;;;;48.88;15.77;;;16.20;99.90;;;;;;5050806;28;20120;-60
2023/07/02 04:44:06;;;;;;;56.50;18.13;;;16.20;99.90;;;;;;5050640;28;20442;-61
2023/07/02 04:46:32;;;;;;;46.88;17.45;;;16.10;99.90;;;;;;5054051;28;20360;-57
2023/07/02 04:48:57;;;;;;;43.28;16.90;;;16.10;99.90;;;;;;5054274;28;20029;-57
2023/07/02 04:51:23;;;;;;;55.45;17.88;;;16.20;99.90;;;;;;5054691;28;20029;-52
2023/07/02 04:53:48;;;;;;;43.05;16.98;;;16.20;99.90;;;;;;5054434;28;20037;-57
2023/07/02 04:56:14;;;;;;;42.13;16.48;;;16.20;99.90;;;;;;5054446;28;20033;-59
2023/07/02 04:58:39;;;;;;;41.78;14.93;;;16.20;99.90;;;;;;5054177;28;20029;-59
2023/07/02 05:01:05;;;;;;;42.90;17.42;;;16.20;99.90;;;;;;5054312;28;20383;-58
2023/07/02 05:03:30;;;;;;;50.63;17.98;;;16.30;99.90;;;;;;5054020;28;20475;-56
2023/07/02 05:05:56;;;;;;;51.28;18.05;;;16.30;99.90;;;;;;5054138;28;20025;-58
2023/07/02 05:08:22;;;;;;;47.95;17.63;;;16.30;99.90;;;;;;5054110;28;20096;-57
2023/07/02 05:10:47;;;;;;;54.00;18.77;;;16.30;99.90;;;;;;5054108;28;20029;-59
2023/07/02 05:13:13;;;;;;;53.92;20.58;;;16.40;99.90;;;;;;5054006;28;20025;-60
2023/07/02 05:15:38;;;;;;;52.95;18.98;;;16.40;99.90;;;;;;5054031;28;20060;-57
2023/07/02 05:18:04;;;;;;;50.20;19.17;;;16.40;99.90;;;;;;5053736;28;20539;-54
2023/07/02 05:20:29;;;;;;;54.33;19.05;;;16.40;99.90;;;;;;5054005;28;20159;-58
2023/07/02 05:22:55;;;;;;;49.28;18.15;;;16.40;99.90;;;;;;5053882;28;20384;-58
2023/07/02 05:25:20;;;;;;;46.25;18.50;;;16.40;99.90;;;;;;5053931;28;20419;-56
2023/07/02 05:27:46;;;;;;;48.05;18.88;;;16.40;99.90;;;;;;5053768;28;20395;-56
2023/07/02 05:30:12;;;;;;;51.80;18.70;;;16.40;99.90;;;;;;5053907;28;20502;-58
2023/07/02 05:32:39;;;;;;;52.17;19.38;;;16.50;99.90;;;;;;5053652;28;20041;-57
2023/07/02 05:35:05;;;;;;;53.30;21.02;;;16.50;99.90;;;;;;5053568;28;20013;-58
2023/07/02 05:37:30;;;;;;;58.50;20.25;;;16.50;99.90;;;;;;5053477;28;20087;-57
2023/07/02 05:39:56;;;;;;;50.47;20.25;;;16.60;99.90;;;;;;5053370;28;20021;-56
2023/07/02 05:42:21;;;;;;;53.67;18.58;;;16.50;99.90;;;;;;5053526;28;20071;-57
2023/07/02 05:44:47;;;;;;;56.83;19.20;;;16.50;99.90;;;;;;5053327;28;20053;-61
2023/07/02 05:47:12;;;;;;;50.17;20.52;;;16.60;99.90;;;;;;5053170;28;20025;-61
2023/07/02 05:49:38;;;;;;;54.75;19.55;;;16.60;99.90;;;;;;5053405;28;20107;-57
2023/07/02 05:52:03;;;;;;;54.08;20.60;;;16.60;99.90;;;;;;5053298;28;20021;-56
2023/07/02 05:54:29;;;;;;;53.72;20.23;;;16.70;99.90;;;;;;5053402;28;20028;-60
2023/07/02 05:56:54;;;;;;;56.20;20.98;;;16.80;99.90;;;;;;5052509;28;20056;-58
2023/07/02 05:59:20;;;;;;;53.60;19.17;;;16.80;99.90;;;;;;5053245;28;20522;-56
2023/07/02 06:01:46;;;;;;;44.17;18.90;;;16.80;99.90;;;;;;5053145;28;20040;-59
2023/07/02 06:04:11;;;;;;;58.88;19.70;;;16.90;99.90;;;;;;5052845;28;20076;-60
2023/07/02 06:06:37;;;;;;;58.05;20.35;;;16.90;99.90;;;;;;5053055;28;20020;-57
2023/07/02 06:09:03;;;;;;;66.70;21.05;;;16.90;99.90;;;;;;5052804;28;20027;-57
2023/07/02 06:11:29;;;;;;;57.72;20.85;;;16.90;99.90;;;;;;5052979;28;20387;-57
2023/07/02 06:13:55;;;;;;;53.90;19.75;;;17.00;99.90;;;;;;5052713;28;20029;-53
2023/07/02 06:16:20;;;;;;;53.67;20.20;;;17.00;99.90;;;;;;5053383;28;20029;-56
2023/07/02 06:18:46;;;;;;;48.60;19.98;;;17.00;99.90;;;;;;5052576;28;20029;-58
2023/07/02 06:21:11;;;;;;;60.25;20.30;;;17.00;99.90;;;;;;5052784;28;20441;-57
2023/07/02 06:23:44;;;;;;;51.33;20.35;;;17.00;99.90;;;;;;5052551;28;20039;-60
2023/07/02 06:26:09;;;;;;;49.50;19.88;;;17.00;99.90;;;;;;5052562;28;20036;-58
2023/07/02 06:28:35;;;;;;;51.88;20.73;;;17.10;99.90;;;;;;5052492;28;20025;-60
2023/07/02 06:31:01;;;;;;;51.42;20.05;;;17.20;99.90;;;;;;5052455;28;20553;-60
2023/07/02 06:33:26;;;;;;;46.20;18.33;;;17.20;99.90;;;;;;5052517;28;20033;-59
2023/07/02 06:35:52;;;;;;;55.90;19.95;;;17.20;99.90;;;;;;5052456;28;20452;-59
2023/07/02 06:38:17;;;;;;;51.45;20.05;;;17.20;99.90;;;;;;5052302;28;20035;-60
2023/07/02 06:40:43;;;;;;;48.80;20.38;;;17.30;99.90;;;;;;5052303;28;20499;-58
2023/07/02 06:43:09;;;;;;;53.85;19.13;;;17.40;99.90;;;;;;5052237;28;20487;-58
2023/07/02 06:45:35;;;;;;;52.80;19.00;;;17.50;99.90;;;;;;5052144;28;20104;-57
2023/07/02 06:48:00;;;;;;;54.35;19.58;;;17.60;99.90;;;;;;5052038;28;20036;-60
2023/07/02 06:50:26;;;;;;;53.88;20.67;;;17.70;99.90;;;;;;5052399;28;20025;-60
2023/07/02 06:52:51;;;;;;;53.75;20.70;;;17.80;99.90;;;;;;5052136;28;20032;-59
2023/07/02 06:55:17;;;;;;;56.22;18.95;;;17.90;99.90;;;;;;5052071;28;20037;-58
2023/07/02 06:57:45;;;;;;;50.25;18.67;;;17.90;99.90;;;;;;5051869;28;20033;-59
2023/07/02 07:00:12;;;;;;;50.38;19.60;;;18.00;99.90;;;;;;5051951;28;20032;-60
2023/07/02 07:02:38;;;;;;;50.20;18.73;;;17.90;99.90;;;;;;5051941;28;20452;-58
2023/07/02 07:05:04;;;;;;;55.50;18.75;;;18.00;99.90;;;;;;5051799;28;20095;-60
2023/07/02 07:07:29;;;;;;;50.45;20.55;;;18.00;99.90;;;;;;5051794;28;20025;-59
2023/07/02 07:09:55;;;;;;;53.78;19.65;;;18.10;99.90;;;;;;5051027;28;20086;-53
2023/07/02 07:12:21;;;;;;;52.08;18.75;;;18.00;99.90;;;;;;5052039;28;20029;-58
2023/07/02 07:14:46;;;;;;;50.60;19.95;;;18.10;99.90;;;;;;5051694;28;20025;-60
2023/07/02 07:17:12;;;;;;;53.80;17.75;;;18.00;99.90;;;;;;5051587;28;20491;-60
2023/07/02 07:19:37;;;;;;;51.60;18.63;;;18.10;99.90;;;;;;5051656;28;20029;-58
2023/07/02 07:22:03;;;;;;;43.50;18.17;;;18.30;99.90;;;;;;5051667;28;20020;-60
2023/07/02 07:24:29;;;;;;;42.83;17.73;;;18.30;99.90;;;;;;5051372;28;20028;-57
2023/07/02 07:26:54;;;;;;;51.28;17.48;;;18.50;99.90;;;;;;5051331;28;20047;-60
2023/07/02 07:29:20;;;;;;;45.90;17.70;;;18.70;99.90;;;;;;5051517;28;20412;-57
2023/07/02 07:31:46;;;;;;;46.45;18.00;;;18.60;99.90;;;;;;5051408;28;20032;-57
2023/07/02 07:34:11;;;;;;;40.65;15.00;;;18.40;99.90;;;;;;5051288;28;20103;-52
2023/07/02 07:36:37;;;;;;;46.90;16.88;;;18.30;99.90;;;;;;5051427;28;20033;-54
2023/07/02 07:39:03;;;;;;;49.03;18.13;;;18.30;99.90;;;;;;5051151;28;20032;-54
2023/07/02 07:41:28;;;;;;;50.20;18.02;;;18.60;99.90;;;;;;5050176;28;20060;-60
2023/07/02 07:43:54;;;;;;;43.85;17.08;;;18.60;99.90;;;;;;5051120;28;20502;-61
2023/07/02 07:46:19;;;;;;;52.95;18.42;;;18.80;99.90;;;;;;5051307;28;20106;-60
2023/07/02 07:48:45;;;;;;;54.28;17.50;;;18.80;99.90;;;;;;5051089;28;20394;-60
2023/07/02 07:51:11;;;;;;;51.63;17.55;;;18.70;99.90;;;;;;5051230;28;20017;-58
2023/07/02 07:53:39;;;;;;;46.47;17.13;;;18.80;99.90;;;;;;5051189;28;20162;-59
2023/07/02 07:56:05;;;;;;;42.58;15.02;;;18.90;99.90;;;;;;5051172;28;20036;-58
2023/07/02 07:58:32;;;;;;;43.47;15.60;;;18.90;99.90;;;;;;5050990;28;20037;-61
2023/07/02 08:00:57;;;;;;;51.50;16.98;;;18.80;99.90;;;;;;5050993;28;20032;-59
2023/07/02 08:03:23;;;;;;;49.17;15.85;;;18.70;99.90;;;;;;5051003;28;20025;-59
2023/07/02 08:05:48;;;;;;;41.20;16.20;;;18.80;99.90;;;;;;5050969;28;20032;-60
2023/07/02 08:08:14;;;;;;;40.65;15.43;;;18.90;99.90;;;;;;5051037;28;20510;-58
2023/07/02 08:10:39;;;;;;;46.08;15.48;;;19.00;99.90;;;;;;5051091;28;20033;-59
2023/07/02 08:13:05;;;;;;;40.03;14.75;;;19.10;99.90;;;;;;5050795;28;20085;-60
2023/07/02 08:15:30;;;;;;;52.92;16.70;;;19.30;99.90;;;;;;5051124;28;20108;-56
2023/07/02 08:17:58;;;;;;;47.70;16.02;;;19.50;99.90;;;;;;5050803;28;20024;-57
2023/07/02 08:20:24;;;;;;;40.42;14.18;;;19.50;99.90;;;;;;5052657;28;20021;-53
2023/07/02 08:22:51;;;;;;;39.78;14.43;;;19.30;99.90;;;;;;5054961;28;20179;-61
2023/07/02 08:25:17;;;;;;;42.78;15.50;;;19.30;99.90;;;;;;5054894;28;20028;-59
2023/07/02 08:27:43;;;;;;;41.85;14.00;;;19.30;99.90;;;;;;5054604;28;20013;-61
2023/07/02 08:30:09;;;;;;;36.00;14.98;;;19.30;99.90;;;;;;5054807;28;20029;-59
2023/07/02 08:32:35;;;;;;;39.20;13.88;;;19.20;99.90;;;;;;5054846;28;20132;-60
2023/07/02 08:35:01;;;;;;;41.72;15.55;;;19.10;99.90;;;;;;5054601;28;20104;-61
2023/07/02 08:37:26;;;;;;;35.33;14.88;;;19.10;99.90;;;;;;5054506;28;20103;-61
2023/07/02 08:39:52;;;;;;;50.45;15.65;;;19.10;99.90;;;;;;5054545;28;20025;-60
2023/07/02 08:42:18;;;;;;;46.75;15.65;;;19.20;99.90;;;;;;5054703;28;20499;-59
2023/07/02 08:44:48;;;;;;;44.38;16.45;;;19.30;99.90;;;;;;5054526;28;20044;-59
2023/07/02 08:47:13;;;;;;;50.13;17.77;;;19.20;99.90;;;;;;5054450;28;20499;-56
2023/07/02 08:49:39;;;;;;;46.08;16.95;;;19.10;99.90;;;;;;5054818;28;20063;-59
2023/07/02 08:52:06;;;;;;;50.15;17.83;;;18.80;99.90;;;;;;5054512;28;20055;-58
2023/07/02 08:54:31;;;;;;;46.55;17.27;;;18.90;99.90;;;;;;5054401;28;20037;-58
2023/07/02 08:56:57;;;;;;;40.20;16.27;;;18.90;99.90;;;;;;5054102;28;20024;-57
2023/07/02 08:59:23;;;;;;;41.97;15.90;;;19.00;99.90;;;;;;5054508;28;20029;-58
2023/07/02 09:01:50;;;;;;;43.47;15.13;;;19.20;99.90;;;;;;5054357;28;20040;-59
2023/07/02 09:04:23;;;;;;;45.95;15.73;;;19.40;99.90;;;;;;5054061;28;20037;-53
2023/07/02 09:07:03;;;;;;;37.65;14.85;;;19.60;99.90;;;;;;5054305;28;20082;-53
2023/07/02 09:09:29;;;;;;;38.83;14.70;;;19.70;99.90;;;;;;5053981;28;20487;-54
2023/07/02 09:11:55;;;;;;;45.08;15.63;;;19.60;99.90;;;;;;5054045;28;20040;-59
2023/07/02 09:14:28;;;;;;;42.75;14.95;;;19.40;99.90;;;;;;5053947;28;20025;-61
2023/07/02 09:17:11;;;;;;;38.45;14.07;;;19.50;99.90;;;;;;5053774;28;20021;-61
2023/07/02 09:19:48;;;;;;;43.97;16.13;;;19.40;99.90;;;;;;5053890;28;20395;-61
2023/07/02 09:22:15;;;;;;;42.72;15.93;;;19.50;99.90;;;;;;5054063;28;20415;-60
2023/07/02 09:24:41;;;;;;;45.13;14.20;;;19.60;99.90;;;;;;5053646;28;20106;-58
2023/07/02 09:27:06;;;;;;;36.05;15.45;;;19.60;99.90;;;;;;5053638;28;21447;-59
2023/07/02 09:29:33;;;;;;;39.45;15.40;;;19.70;99.90;;;;;;5053636;28;20100;-59
2023/07/02 09:32:07;;;;;;;49.78;16.13;;;19.70;99.90;;;;;;5052722;28;20383;-57
2023/07/02 09:34:33;;;;;;;42.07;15.30;;;19.70;99.90;;;;;;5053575;28;20380;-61
2023/07/02 09:37:00;;;;;;;44.53;16.13;;;19.70;99.90;;;;;;5053226;28;20033;-61
2023/07/02 09:39:28;;;;;;;44.05;14.77;;;19.60;99.90;;;;;;5053544;28;20041;-61
2023/07/02 09:41:56;;;;;;;44.55;16.20;;;19.60;99.90;;;;;;5053357;28;20043;-60
2023/07/02 09:44:31;;;;;;;39.60;15.77;;;19.60;99.90;;;;;;5053335;28;20029;-59
2023/07/02 09:47:07;;;;;;;42.33;17.02;;;19.50;99.90;;;;;;5053145;28;20040;-61
2023/07/02 09:49:48;;;;;;;46.47;17.15;;;19.50;99.90;;;;;;5053468;28;20415;-59
2023/07/02 09:52:14;;;;;;;54.88;17.25;;;19.50;99.90;;;;;;5053316;28;20483;-61
2023/07/02 09:54:41;;;;;;;49.72;16.73;;;19.70;99.90;;;;;;5053201;28;20510;-57
2023/07/02 09:57:07;;;;;;;41.80;16.80;;;19.90;99.90;;;;;;5052896;28;20124;-61
2023/07/02 09:59:33;;;;;;;39.35;16.02;;;19.90;99.90;;;;;;5053154;28;20057;-58
2023/07/02 10:01:59;;;;;;;37.22;16.65;;;19.60;99.90;;;;;;5053190;28;20047;-59
2023/07/02 10:04:24;;;;;;;44.97;17.17;;;19.70;99.90;;;;;;5053079;28;20025;-59
2023/07/02 10:06:52;;;;;;;43.38;16.50;;;19.70;99.90;;;;;;5052946;28;20104;-59
2023/07/02 10:09:19;;;;;;;39.58;17.00;;;19.90;99.90;;;;;;5053184;28;20028;-60
2023/07/02 10:11:45;;;;;;;41.67;17.13;;;20.10;99.90;;;;;;5053088;28;20025;-58
2023/07/02 10:14:11;;;;;;;44.90;17.40;;;20.00;99.90;;;;;;5052896;28;20502;-58
2023/07/02 10:16:56;;;;;;;43.15;16.60;;;20.30;99.90;;;;;;5053049;28;20024;-59
2023/07/02 10:19:22;;;;;;;38.75;17.35;;;20.50;99.90;;;;;;5052929;28;20108;-59
2023/07/02 10:22:04;;;;;;;39.65;16.58;;;20.60;99.90;;;;;;5052799;28;20108;-62
2023/07/02 10:24:30;;;;;;;41.22;15.73;;;20.80;99.90;;;;;;5052495;28;20032;-61
2023/07/02 10:26:58;;;;;;;41.83;15.65;;;20.80;99.90;;;;;;5052574;28;20402;-56
2023/07/02 10:29:24;;;;;;;30.30;14.07;;;20.60;99.90;;;;;;5052729;28;20021;-59
2023/07/02 10:31:55;;;;;;;40.50;14.38;;;20.50;99.90;;;;;;5052716;28;20029;-59
2023/07/02 10:34:31;;;;;;;31.33;13.68;;;20.50;99.90;;;;;;5052683;28;20513;-58
2023/07/02 10:36:57;;;;;;;34.85;14.18;;;20.40;99.90;;;;;;5052206;28;20029;-59
2023/07/02 10:39:22;;;;;;;38.58;16.23;;;20.30;99.90;;;;;;5052517;28;20025;-59
2023/07/02 10:41:49;;;;;;;42.00;14.18;;;20.10;99.90;;;;;;5052335;28;20055;-55
2023/07/02 10:44:15;;;;;;;36.50;14.73;;;20.10;99.90;;;;;;5052122;28;20059;-59
2023/07/02 10:46:47;;;;;;;41.40;14.00;;;20.10;99.90;;;;;;5052314;28;20045;-59
2023/07/02 10:49:14;;;;;;;32.13;13.20;;;20.10;99.90;;;;;;5051867;28;20036;-58
2023/07/02 10:51:40;;;;;;;39.72;13.23;;;20.00;99.90;;;;;;5052277;28;20455;-59
2023/07/02 10:54:05;;;;;;;40.05;14.93;;;19.80;99.90;;;;;;5051855;28;20135;-60
2023/07/02 10:56:31;;;;;;;32.05;13.90;;;19.80;99.90;;;;;;5052193;28;20025;-61
2023/07/02 10:58:58;;;;;;;37.03;14.35;;;20.00;99.90;;;;;;5052022;28;20494;-60
2023/07/02 11:01:28;;;;;;;46.65;15.70;;;20.00;99.90;;;;;;5052277;28;20048;-60
2023/07/02 11:04:02;;;;;;;34.38;13.82;;;19.90;99.90;;;;;;5051748;28;20414;-61
2023/07/02 11:06:28;;;;;;;42.95;15.88;;;19.80;99.90;;;;;;5052000;28;20048;-61
2023/07/02 11:08:55;;;;;;;35.50;15.32;;;19.80;99.90;;;;;;5051834;28;20099;-59
2023/07/02 11:11:22;;;;;;;35.70;13.85;;;19.90;99.90;;;;;;5052126;28;20025;-56
2023/07/02 11:13:49;;;;;;;44.28;15.95;;;20.00;99.90;;;;;;5051698;28;20476;-59
2023/07/02 11:16:29;;;;;;;34.67;13.55;;;20.10;99.90;;;;;;5051807;28;20102;-58
2023/07/02 11:19:08;;;;;;;36.58;14.90;;;20.40;99.90;;;;;;5051560;28;20044;-59
2023/07/02 11:21:34;;;;;;;36.33;13.98;;;20.30;99.90;;;;;;5051730;28;20028;-59
2023/07/02 11:24:05;;;;;;;35.97;14.25;;;20.40;99.90;;;;;;5051825;28;20028;-59
2023/07/02 11:26:41;;;;;;;35.92;14.55;;;20.50;99.90;;;;;;5051641;28;20028;-61
2023/07/02 11:29:17;;;;;;;39.08;14.85;;;20.70;99.90;;;;;;5051321;28;20085;-60
2023/07/02 11:31:43;;;;;;;36.80;15.20;;;20.60;99.90;;;;;;5051489;28;20139;-59
2023/07/02 11:34:20;;;;;;;37.88;14.70;;;21.00;99.90;;;;;;5051206;28;20108;-60
2023/07/02 11:36:46;;;;;;;40.08;16.17;;;21.40;99.90;;;;;;5051360;28;20065;-59
2023/07/02 11:39:12;;;;;;;28.13;12.73;;;21.70;99.90;;;;;;5051240;28;20134;-59
2023/07/02 11:41:43;;;;;;;37.20;13.73;;;21.60;99.90;;;;;;5051437;28;20445;-57
2023/07/02 11:44:09;;;;;;;32.17;12.38;;;21.50;99.90;;;;;;5051206;28;20029;-58
2023/07/02 11:46:34;;;;;;;31.20;13.02;;;21.50;99.90;;;;;;5051263;28;20021;-61
2023/07/02 11:49:01;;;;;;;37.00;14.70;;;21.40;99.90;;;;;;5050991;28;20483;-57
2023/07/02 11:51:27;;;;;;;38.60;12.50;;;21.80;99.90;;;;;;5051256;28;20017;-61
2023/07/02 11:53:53;;;;;;;32.65;13.32;;;22.30;99.90;;;;;;5051256;28;20023;-60
2023/07/02 11:56:18;;;;;;;37.35;14.02;;;22.60;99.90;;;;;;5050829;28;20402;-59
2023/07/02 11:58:44;;;;;;;45.03;14.45;;;22.50;99.90;;;;;;5051113;28;20025;-58
2023/07/02 12:01:09;;;;;;;37.35;14.15;;;22.40;99.90;;;;;;5051256;28;20044;-58
2023/07/02 12:03:35;;;;;;;28.85;12.90;;;22.10;99.90;;;;;;5050996;28;20491;-59
2023/07/02 12:06:00;;;;;;;38.03;13.45;;;21.90;99.90;;;;;;5050941;28;20523;-61
2023/07/02 12:08:26;;;;;;;34.75;13.35;;;22.00;99.90;;;;;;5050868;28;20668;-56
2023/07/02 12:10:51;;;;;;;34.05;13.82;;;22.00;99.90;;;;;;5050987;28;20055;-56
2023/07/02 12:13:17;;;;;;;29.38;12.10;;;22.20;99.90;;;;;;5050944;28;20033;-57
2023/07/02 12:15:43;;;;;;;36.05;14.02;;;22.40;99.90;;;;;;5051019;28;20055;-59
2023/07/02 12:18:09;;;;;;;37.05;14.20;;;22.70;99.90;;;;;;5050960;28;20698;-57
2023/07/02 12:20:35;;;;;;;26.52;10.93;;;22.60;99.90;;;;;;5051164;28;20029;-52
2023/07/02 12:23:01;;;;;;;25.73;11.07;;;22.80;99.90;;;;;;5050886;28;20510;-57
2023/07/02 12:25:27;;;;;;;32.10;11.35;;;22.60;99.90;;;;;;5050932;28;20132;-59
2023/07/02 12:27:53;;;;;;;24.88;10.73;;;22.20;99.90;;;;;;5050789;28;20044;-58